createdAt,value
2019-05-06T00:00:59.602Z,0.00
2019-05-06T00:01:56.628Z,0.00
2019-05-06T00:02:56.618Z,0.00
2019-05-06T00:03:56.617Z,0.00
2019-05-06T00:04:56.611Z,0.00
2019-05-06T00:05:56.586Z,0.00
2019-05-06T00:06:56.575Z,0.00
2019-05-06T00:07:56.566Z,0.00
2019-05-06T00:08:56.558Z,0.00
2019-05-06T00:09:56.542Z,0.00
2019-05-06T00:10:56.538Z,0.00
2019-05-06T00:11:56.522Z,0.00
2019-05-06T00:12:56.511Z,0.00
2019-05-06T00:13:56.507Z,0.00
2019-05-06T00:14:56.498Z,0.00
2019-05-06T00:15:56.492Z,0.00
2019-05-06T00:16:58.680Z,0.00
2019-05-06T00:17:56.461Z,0.00
2019-05-06T00:18:56.447Z,0.00
2019-05-06T00:19:57.109Z,0.00
2019-05-06T00:20:57.622Z,0.00
2019-05-06T00:21:56.426Z,0.00
2019-05-06T00:22:56.406Z,0.00
2019-05-06T00:23:56.397Z,0.00
2019-05-06T00:24:56.385Z,0.00
2019-05-06T00:25:56.377Z,0.00
2019-05-06T00:26:57.581Z,0.00
2019-05-06T00:27:56.355Z,0.00
2019-05-06T00:28:56.349Z,0.00
2019-05-06T00:29:56.332Z,0.00
2019-05-06T00:31:09.508Z,0.00
2019-05-06T00:31:57.311Z,0.00
2019-05-06T00:32:56.300Z,0.00
2019-05-06T00:33:56.290Z,0.00
2019-05-06T00:34:56.278Z,0.00
2019-05-06T00:35:56.273Z,0.00
2019-05-06T00:36:56.256Z,0.00
2019-05-06T00:37:56.246Z,0.00
2019-05-06T00:38:56.240Z,0.00
2019-05-06T00:39:56.224Z,0.00
2019-05-06T00:40:56.215Z,0.00
2019-05-06T00:41:56.207Z,0.00
2019-05-06T00:42:56.195Z,0.00
2019-05-06T00:43:56.186Z,0.00
2019-05-06T00:44:56.176Z,0.00
2019-05-06T00:45:56.161Z,0.00
2019-05-06T00:46:56.149Z,0.00
2019-05-06T00:47:56.141Z,0.00
2019-05-06T00:48:56.128Z,0.00
2019-05-06T00:49:56.117Z,0.00
2019-05-06T00:50:56.109Z,0.00
2019-05-06T00:51:56.114Z,0.00
2019-05-06T00:52:56.086Z,0.00
2019-05-06T00:53:56.077Z,0.00
2019-05-06T00:54:56.065Z,0.00
2019-05-06T00:55:56.062Z,0.00
2019-05-06T00:56:56.045Z,0.00
2019-05-06T00:57:56.031Z,0.00
2019-05-06T00:58:56.023Z,0.00
2019-05-06T00:59:56.015Z,0.00
2019-05-06T01:00:56.000Z,0.00
2019-05-06T01:01:55.993Z,0.00
2019-05-06T01:02:55.981Z,0.00
2019-05-06T01:03:55.970Z,0.00
2019-05-06T01:04:55.958Z,0.00
2019-05-06T01:05:55.947Z,0.00
2019-05-06T01:06:55.944Z,0.00
2019-05-06T01:07:55.930Z,0.00
2019-05-06T01:08:55.915Z,0.00
2019-05-06T01:09:55.905Z,0.00
2019-05-06T01:10:55.897Z,0.00
2019-05-06T01:11:55.884Z,0.00
2019-05-06T01:12:55.877Z,0.00
2019-05-06T01:13:55.866Z,0.00
2019-05-06T01:14:55.852Z,0.00
2019-05-06T01:15:55.840Z,0.00
2019-05-06T01:16:55.827Z,0.00
2019-05-06T01:17:55.821Z,0.00
2019-05-06T01:18:55.810Z,0.00
2019-05-06T01:19:55.799Z,0.00
2019-05-06T01:20:55.788Z,0.00
2019-05-06T01:21:55.779Z,0.00
2019-05-06T01:22:55.767Z,0.00
2019-05-06T01:23:55.755Z,0.00
2019-05-06T01:24:55.926Z,0.00
2019-05-06T01:25:55.742Z,0.00
2019-05-06T01:26:55.723Z,0.00
2019-05-06T01:27:55.713Z,0.00
2019-05-06T01:28:55.702Z,0.00
2019-05-06T01:29:55.694Z,0.00
2019-05-06T01:30:55.682Z,0.00
2019-05-06T01:31:55.670Z,0.00
2019-05-06T01:32:55.661Z,0.00
2019-05-06T01:33:55.659Z,0.00
2019-05-06T01:34:55.640Z,0.00
2019-05-06T01:35:55.626Z,0.00
2019-05-06T01:36:55.621Z,0.00
2019-05-06T01:37:55.608Z,0.00
2019-05-06T01:38:55.597Z,0.00
2019-05-06T01:39:55.612Z,0.00
2019-05-06T01:40:55.568Z,0.00
2019-05-06T01:41:55.563Z,0.00
2019-05-06T01:42:55.557Z,0.00
2019-05-06T01:43:55.543Z,0.00
2019-05-06T01:44:55.530Z,0.00
2019-05-06T01:45:55.520Z,0.00
2019-05-06T01:46:55.513Z,0.00
2019-05-06T01:47:55.498Z,0.00
2019-05-06T01:48:55.482Z,0.00
2019-05-06T01:49:55.479Z,0.00
2019-05-06T01:50:55.468Z,0.00
2019-05-06T01:51:55.460Z,0.00
2019-05-06T01:52:55.444Z,0.00
2019-05-06T01:53:55.434Z,0.00
2019-05-06T01:54:55.425Z,0.00
2019-05-06T01:55:55.412Z,0.00
2019-05-06T01:56:55.403Z,0.00
2019-05-06T01:57:55.391Z,0.00
2019-05-06T01:58:55.386Z,0.00
2019-05-06T01:59:55.373Z,0.00
2019-05-06T02:00:55.360Z,0.00
2019-05-06T02:02:00.771Z,0.00
2019-05-06T02:02:56.336Z,0.00
2019-05-06T02:03:55.330Z,0.00
2019-05-06T02:04:55.321Z,0.00
2019-05-06T02:05:55.309Z,0.00
2019-05-06T02:06:55.295Z,0.00
2019-05-06T02:07:55.288Z,0.00
2019-05-06T02:08:55.273Z,0.00
2019-05-06T02:09:55.263Z,0.00
2019-05-06T02:10:55.266Z,0.00
2019-05-06T02:11:55.248Z,0.00
2019-05-06T02:12:55.233Z,0.00
2019-05-06T02:13:55.219Z,0.00
2019-05-06T02:14:55.210Z,0.00
2019-05-06T02:15:55.199Z,0.00
2019-05-06T02:16:55.187Z,0.00
2019-05-06T02:17:55.233Z,0.00
2019-05-06T02:18:55.170Z,0.00
2019-05-06T02:19:55.157Z,0.00
2019-05-06T02:20:55.144Z,0.00
2019-05-06T02:21:55.135Z,0.00
2019-05-06T02:22:55.128Z,0.00
2019-05-06T02:23:55.113Z,0.00
2019-05-06T02:24:55.100Z,0.00
2019-05-06T02:25:55.093Z,0.00
2019-05-06T02:26:55.082Z,0.00
2019-05-06T02:27:55.069Z,0.00
2019-05-06T02:28:55.066Z,0.00
2019-05-06T02:29:55.048Z,0.00
2019-05-06T02:30:55.047Z,0.00
2019-05-06T02:32:14.775Z,0.00
2019-05-06T02:32:56.020Z,0.00
2019-05-06T02:33:56.087Z,0.00
2019-05-06T02:34:55.018Z,0.00
2019-05-06T02:35:55.161Z,0.00
2019-05-06T02:36:55.312Z,0.00
2019-05-06T02:37:55.298Z,0.00
2019-05-06T02:38:55.892Z,0.00
2019-05-06T02:39:54.943Z,0.00
2019-05-06T02:40:54.936Z,0.00
2019-05-06T02:41:55.242Z,0.00
2019-05-06T02:42:55.389Z,0.00
2019-05-06T02:43:54.900Z,0.00
2019-05-06T02:44:54.891Z,0.00
2019-05-06T02:45:54.877Z,0.00
2019-05-06T02:46:54.870Z,0.00
2019-05-06T02:47:54.858Z,0.00
2019-05-06T02:48:54.851Z,0.00
2019-05-06T02:49:54.844Z,0.00
2019-05-06T02:50:54.824Z,0.00
2019-05-06T02:51:54.829Z,0.00
2019-05-06T02:52:54.805Z,0.00
2019-05-06T02:53:54.796Z,0.00
2019-05-06T02:54:54.797Z,0.00
2019-05-06T02:55:54.775Z,0.00
2019-05-06T02:56:54.762Z,0.00
2019-05-06T02:57:54.750Z,0.00
2019-05-06T02:58:54.741Z,0.00
2019-05-06T02:59:55.550Z,0.00
2019-05-06T03:00:54.719Z,0.00
2019-05-06T03:01:54.708Z,0.00
2019-05-06T03:02:54.701Z,0.00
2019-05-06T03:03:54.685Z,0.00
2019-05-06T03:04:54.674Z,0.00
2019-05-06T03:05:54.664Z,0.00
2019-05-06T03:06:54.679Z,0.00
2019-05-06T03:07:57.524Z,0.00
2019-05-06T03:08:54.632Z,0.00
2019-05-06T03:09:54.662Z,0.00
2019-05-06T03:10:54.615Z,0.00
2019-05-06T03:11:54.607Z,0.00
2019-05-06T03:12:54.595Z,0.00
2019-05-06T03:13:54.588Z,0.00
2019-05-06T03:14:54.573Z,0.00
2019-05-06T03:15:54.607Z,0.00
2019-05-06T03:16:54.547Z,0.00
2019-05-06T03:17:55.363Z,0.00
2019-05-06T03:18:54.529Z,0.00
2019-05-06T03:19:54.521Z,5.62
2019-05-06T03:20:54.508Z,5.62
2019-05-06T03:21:54.864Z,5.62
2019-05-06T03:22:54.661Z,5.62
2019-05-06T03:23:54.570Z,5.62
2019-05-06T03:24:54.821Z,5.62
2019-05-06T03:25:54.451Z,5.62
2019-05-06T03:26:57.035Z,5.62
2019-05-06T03:27:54.431Z,11.25
2019-05-06T03:28:54.422Z,11.25
2019-05-06T03:29:54.418Z,11.25
2019-05-06T03:30:56.719Z,11.25
2019-05-06T03:31:56.543Z,11.25
2019-05-06T03:33:30.260Z,11.25
2019-05-06T03:34:22.195Z,16.88
2019-05-06T03:35:16.308Z,16.88
2019-05-06T03:36:06.209Z,16.88
2019-05-06T03:36:56.695Z,16.88
2019-05-06T03:37:54.325Z,16.88
2019-05-06T03:38:54.315Z,22.50
2019-05-06T03:39:54.319Z,22.50
2019-05-06T03:40:54.295Z,22.50
2019-05-06T03:41:54.281Z,22.50
2019-05-06T03:42:54.274Z,28.12
2019-05-06T03:43:54.612Z,28.12
2019-05-06T03:44:54.259Z,28.12
2019-05-06T03:45:54.239Z,28.12
2019-05-06T03:46:54.266Z,33.75
2019-05-06T03:47:54.513Z,33.75
2019-05-06T03:48:54.210Z,33.75
2019-05-06T03:49:54.960Z,33.75
2019-05-06T03:50:55.986Z,39.38
2019-05-06T03:51:56.386Z,39.38
2019-05-06T03:52:56.513Z,39.38
2019-05-06T03:53:56.851Z,45.00
2019-05-06T03:54:54.144Z,45.00
2019-05-06T03:55:54.206Z,45.00
2019-05-06T03:56:54.124Z,45.00
2019-05-06T03:57:54.109Z,50.62
2019-05-06T03:58:54.102Z,50.62
2019-05-06T03:59:54.088Z,50.62
2019-05-06T04:00:54.074Z,56.25
2019-05-06T04:01:54.066Z,56.25
2019-05-06T04:02:54.117Z,56.25
2019-05-06T04:03:56.971Z,61.88
2019-05-06T04:04:56.714Z,61.88
2019-05-06T04:05:56.007Z,61.88
2019-05-06T04:06:54.042Z,61.88
2019-05-06T04:07:54.002Z,67.50
2019-05-06T04:08:53.992Z,67.50
2019-05-06T04:09:54.005Z,67.50
2019-05-06T04:10:54.072Z,73.12
2019-05-06T04:11:54.304Z,73.12
2019-05-06T04:12:54.197Z,73.12
2019-05-06T04:13:53.964Z,73.12
2019-05-06T04:14:54.361Z,78.75
2019-05-06T04:15:54.221Z,78.75
2019-05-06T04:16:53.909Z,78.75
2019-05-06T04:17:54.273Z,84.38
2019-05-06T04:18:54.263Z,84.38
2019-05-06T04:19:53.875Z,84.38
2019-05-06T04:20:53.903Z,84.38
2019-05-06T04:21:53.854Z,90.00
2019-05-06T04:22:53.845Z,90.00
2019-05-06T04:23:53.839Z,90.00
2019-05-06T04:24:54.085Z,95.62
2019-05-06T04:25:53.812Z,95.62
2019-05-06T04:26:53.805Z,95.62
2019-05-06T04:27:54.127Z,95.62
2019-05-06T04:28:53.780Z,101.25
2019-05-06T04:29:54.322Z,101.25
2019-05-06T04:30:54.886Z,101.25
2019-05-06T04:31:54.283Z,106.88
2019-05-06T04:32:53.734Z,106.88
2019-05-06T04:34:08.709Z,106.88
2019-05-06T04:34:54.716Z,112.50
2019-05-06T04:35:54.267Z,112.50
2019-05-06T04:36:53.731Z,112.50
2019-05-06T04:37:54.103Z,112.50
2019-05-06T04:38:54.231Z,118.12
2019-05-06T04:39:53.829Z,118.12
2019-05-06T04:40:54.232Z,118.12
2019-05-06T04:41:54.049Z,123.75
2019-05-06T04:42:53.658Z,123.75
2019-05-06T04:43:53.619Z,123.75
2019-05-06T04:44:53.610Z,123.75
2019-05-06T04:45:54.255Z,129.38
2019-05-06T04:46:54.492Z,129.38
2019-05-06T04:47:54.065Z,129.38
2019-05-06T04:48:53.980Z,135.00
2019-05-06T04:49:53.557Z,135.00
2019-05-06T04:50:53.912Z,135.00
2019-05-06T04:51:54.277Z,140.62
2019-05-06T04:52:53.716Z,140.62
2019-05-06T04:53:53.848Z,140.62
2019-05-06T04:54:53.561Z,140.62
2019-05-06T04:55:54.032Z,146.25
2019-05-06T04:56:53.830Z,146.25
2019-05-06T04:57:53.745Z,151.88
2019-05-06T04:58:54.011Z,151.88
2019-05-06T04:59:54.223Z,151.88
2019-05-06T05:00:53.451Z,157.50
2019-05-06T05:01:53.753Z,157.50
2019-05-06T05:02:54.941Z,163.12
2019-05-06T05:03:54.109Z,163.12
2019-05-06T05:04:53.408Z,163.12
2019-05-06T05:05:53.390Z,163.12
2019-05-06T05:06:53.395Z,163.12
2019-05-06T05:07:53.366Z,168.75
2019-05-06T05:08:53.439Z,168.75
2019-05-06T05:09:53.697Z,168.75
2019-05-06T05:10:53.338Z,174.38
2019-05-06T05:11:53.457Z,174.38
2019-05-06T05:12:53.317Z,185.62
2019-05-06T05:13:53.442Z,180.00
2019-05-06T05:14:53.290Z,185.62
2019-05-06T05:15:53.279Z,185.62
2019-05-06T05:16:53.272Z,191.25
2019-05-06T05:17:53.259Z,191.25
2019-05-06T05:18:53.252Z,196.88
2019-05-06T05:19:53.234Z,196.88
2019-05-06T05:20:53.226Z,196.88
2019-05-06T05:21:53.214Z,202.50
2019-05-06T05:22:53.208Z,202.50
2019-05-06T05:23:53.205Z,208.12
2019-05-06T05:24:53.182Z,213.75
2019-05-06T05:25:53.172Z,219.38
2019-05-06T05:26:53.160Z,225.00
2019-05-06T05:27:53.151Z,230.62
2019-05-06T05:28:53.315Z,236.25
2019-05-06T05:29:53.127Z,236.25
2019-05-06T05:30:53.118Z,236.25
2019-05-06T05:31:53.145Z,230.62
2019-05-06T05:32:53.108Z,236.25
2019-05-06T05:33:53.095Z,241.88
2019-05-06T05:34:53.114Z,247.50
2019-05-06T05:35:53.063Z,264.38
2019-05-06T05:36:53.053Z,270.00
2019-05-06T05:37:53.046Z,264.38
2019-05-06T05:38:53.031Z,258.75
2019-05-06T05:39:53.022Z,258.75
2019-05-06T05:40:53.009Z,253.12
2019-05-06T05:41:53.001Z,264.38
2019-05-06T05:42:52.992Z,281.25
2019-05-06T05:43:52.980Z,298.12
2019-05-06T05:44:52.967Z,303.75
2019-05-06T05:45:52.959Z,315.00
2019-05-06T05:46:52.945Z,309.38
2019-05-06T05:47:52.938Z,315.00
2019-05-06T05:48:52.927Z,320.62
2019-05-06T05:49:52.965Z,326.25
2019-05-06T05:50:52.908Z,331.88
2019-05-06T05:51:52.895Z,360.00
2019-05-06T05:52:52.893Z,354.38
2019-05-06T05:53:52.908Z,343.12
2019-05-06T05:54:55.495Z,326.25
2019-05-06T05:55:52.851Z,320.62
2019-05-06T05:56:53.077Z,326.25
2019-05-06T05:57:52.828Z,337.50
2019-05-06T05:58:53.535Z,331.88
2019-05-06T05:59:52.951Z,354.38
2019-05-06T06:00:52.798Z,365.62
2019-05-06T06:01:53.116Z,376.88
2019-05-06T06:02:53.084Z,382.50
2019-05-06T06:03:52.918Z,393.75
2019-05-06T06:04:57.196Z,399.38
2019-05-06T06:05:53.741Z,416.25
2019-05-06T06:06:52.728Z,427.50
2019-05-06T06:07:53.087Z,433.12
2019-05-06T06:08:52.713Z,450.00
2019-05-06T06:09:52.699Z,461.25
2019-05-06T06:10:52.688Z,466.88
2019-05-06T06:11:53.203Z,466.88
2019-05-06T06:12:52.854Z,472.50
2019-05-06T06:13:52.656Z,472.50
2019-05-06T06:14:55.762Z,478.12
2019-05-06T06:15:52.634Z,478.12
2019-05-06T06:16:52.774Z,483.75
2019-05-06T06:17:52.613Z,483.75
2019-05-06T06:18:52.600Z,483.75
2019-05-06T06:19:53.381Z,489.38
2019-05-06T06:20:52.842Z,489.38
2019-05-06T06:21:52.571Z,495.00
2019-05-06T06:22:52.560Z,495.00
2019-05-06T06:23:52.907Z,495.00
2019-05-06T06:24:52.679Z,500.62
2019-05-06T06:25:52.978Z,506.25
2019-05-06T06:26:52.515Z,506.25
2019-05-06T06:27:52.506Z,511.88
2019-05-06T06:28:52.495Z,517.50
2019-05-06T06:29:52.812Z,523.12
2019-05-06T06:30:52.479Z,528.75
2019-05-06T06:31:52.532Z,528.75
2019-05-06T06:32:52.868Z,534.38
2019-05-06T06:33:52.967Z,540.00
2019-05-06T06:35:07.145Z,540.00
2019-05-06T06:35:53.424Z,545.62
2019-05-06T06:36:52.653Z,545.62
2019-05-06T06:37:52.487Z,551.25
2019-05-06T06:38:52.795Z,551.25
2019-05-06T06:39:52.716Z,556.88
2019-05-06T06:40:55.506Z,562.50
2019-05-06T06:41:52.354Z,562.50
2019-05-06T06:42:52.590Z,562.50
2019-05-06T06:43:52.495Z,562.50
2019-05-06T06:44:52.321Z,568.12
2019-05-06T06:45:53.127Z,585.00
2019-05-06T06:46:52.539Z,596.25
2019-05-06T06:47:52.293Z,641.25
2019-05-06T06:48:52.715Z,646.88
2019-05-06T06:49:53.439Z,646.88
2019-05-06T06:50:52.376Z,624.38
2019-05-06T06:51:53.155Z,331.88
2019-05-06T06:52:52.582Z,573.75
2019-05-06T06:53:52.975Z,495.00
2019-05-06T06:54:52.770Z,652.50
2019-05-06T06:55:52.364Z,652.50
2019-05-06T06:57:05.591Z,663.75
2019-05-06T06:57:53.183Z,669.38
2019-05-06T06:58:52.515Z,669.38
2019-05-06T06:59:52.437Z,686.25
2019-05-06T07:00:53.298Z,691.88
2019-05-06T07:01:52.964Z,466.88
2019-05-06T07:02:52.524Z,731.25
2019-05-06T07:03:52.811Z,753.75
2019-05-06T07:04:52.638Z,770.62
2019-05-06T07:05:52.730Z,787.50
2019-05-06T07:06:53.122Z,759.38
2019-05-06T07:07:53.156Z,781.88
2019-05-06T07:08:52.062Z,838.12
2019-05-06T07:09:52.611Z,579.38
2019-05-06T07:10:52.507Z,855.00
2019-05-06T07:11:52.591Z,888.75
2019-05-06T07:12:53.262Z,821.25
2019-05-06T07:13:52.900Z,556.88
2019-05-06T07:14:52.375Z,523.12
2019-05-06T07:15:52.151Z,545.62
2019-05-06T07:16:53.349Z,855.00
2019-05-06T07:17:52.510Z,888.75
2019-05-06T07:18:52.620Z,939.38
2019-05-06T07:19:52.755Z,945.00
2019-05-06T07:20:52.579Z,669.38
2019-05-06T07:21:52.320Z,1023.75
2019-05-06T07:22:53.025Z,630.00
2019-05-06T07:23:52.983Z,601.88
2019-05-06T07:24:52.766Z,973.12
2019-05-06T07:25:53.830Z,916.88
2019-05-06T07:26:52.458Z,534.38
2019-05-06T07:27:52.956Z,511.88
2019-05-06T07:28:52.654Z,528.75
2019-05-06T07:29:52.384Z,815.62
2019-05-06T07:30:52.253Z,1085.62
2019-05-06T07:31:53.445Z,855.00
2019-05-06T07:32:52.788Z,1119.38
2019-05-06T07:33:52.301Z,1018.12
2019-05-06T07:34:53.158Z,939.38
2019-05-06T07:35:53.047Z,466.88
2019-05-06T07:36:52.435Z,540.00
2019-05-06T07:37:53.021Z,675.00
2019-05-06T07:38:52.796Z,759.38
2019-05-06T07:39:52.980Z,556.88
2019-05-06T07:40:52.987Z,551.25
2019-05-06T07:41:53.491Z,545.62
2019-05-06T07:42:52.712Z,725.62
2019-05-06T07:43:52.538Z,1130.62
2019-05-06T07:44:52.882Z,1175.62
2019-05-06T07:45:53.140Z,950.62
2019-05-06T07:46:52.477Z,1282.50
2019-05-06T07:47:53.050Z,2700.00
2019-05-06T07:48:51.949Z,3076.88
2019-05-06T07:49:53.122Z,3093.75
2019-05-06T07:50:52.105Z,2666.25
2019-05-06T07:51:52.997Z,1546.88
2019-05-06T07:52:52.775Z,3380.62
2019-05-06T07:53:52.445Z,3245.62
2019-05-06T07:54:53.334Z,2896.88
2019-05-06T07:55:52.501Z,3560.62
2019-05-06T07:56:52.610Z,2576.25
2019-05-06T07:57:52.543Z,4050.00
2019-05-06T07:58:52.862Z,1102.50
2019-05-06T07:59:52.508Z,691.88
2019-05-06T08:00:52.455Z,669.38
2019-05-06T08:01:53.837Z,680.62
2019-05-06T08:02:52.447Z,652.50
2019-05-06T08:03:53.307Z,675.00
2019-05-06T08:04:53.157Z,675.00
2019-05-06T08:05:57.869Z,669.38
2019-05-06T08:06:52.461Z,3819.38
2019-05-06T08:07:55.059Z,866.25
2019-05-06T08:08:53.711Z,691.88
2019-05-06T08:09:52.898Z,894.38
2019-05-06T08:10:52.719Z,4736.25
2019-05-06T08:11:53.082Z,1125.00
2019-05-06T08:12:52.679Z,3892.50
2019-05-06T08:13:52.792Z,4207.50
2019-05-06T08:14:52.340Z,4573.12
2019-05-06T08:15:53.133Z,4308.75
2019-05-06T08:16:53.176Z,4387.50
2019-05-06T08:17:52.418Z,1417.50
2019-05-06T08:18:52.361Z,3808.12
2019-05-06T08:19:52.931Z,967.50
2019-05-06T08:20:51.979Z,1530.00
2019-05-06T08:21:52.134Z,4477.50
2019-05-06T08:22:52.986Z,675.00
2019-05-06T08:23:52.251Z,573.75
2019-05-06T08:24:53.173Z,551.25
2019-05-06T08:25:54.331Z,579.38
2019-05-06T08:26:52.266Z,596.25
2019-05-06T08:27:53.077Z,691.88
2019-05-06T08:28:52.572Z,624.38
2019-05-06T08:29:52.617Z,3931.88
2019-05-06T08:30:53.139Z,810.00
2019-05-06T08:31:52.419Z,5023.12
2019-05-06T08:32:52.889Z,5056.88
2019-05-06T08:33:52.425Z,5040.00
2019-05-06T08:34:52.407Z,5242.50
2019-05-06T08:35:53.168Z,5248.12
2019-05-06T08:36:53.217Z,5557.50
2019-05-06T08:37:52.973Z,1462.50
2019-05-06T08:38:53.099Z,1125.00
2019-05-06T08:39:52.663Z,793.12
2019-05-06T08:40:52.593Z,2666.25
2019-05-06T08:41:52.892Z,3903.75
2019-05-06T08:42:53.144Z,5653.12
2019-05-06T08:43:52.817Z,3870.00
2019-05-06T08:44:52.997Z,2930.62
2019-05-06T08:45:52.839Z,1996.88
2019-05-06T08:46:53.121Z,1625.62
2019-05-06T08:47:52.406Z,916.88
2019-05-06T08:48:52.507Z,928.12
2019-05-06T08:49:52.771Z,815.62
2019-05-06T08:50:52.766Z,714.38
2019-05-06T08:51:52.988Z,658.12
2019-05-06T08:52:52.331Z,641.25
2019-05-06T08:53:52.884Z,601.88
2019-05-06T08:54:52.636Z,658.12
2019-05-06T08:55:52.761Z,753.75
2019-05-06T08:56:52.318Z,922.50
2019-05-06T08:57:52.739Z,3161.25
2019-05-06T08:58:52.824Z,3459.38
2019-05-06T08:59:50.870Z,5298.75
2019-05-06T09:00:53.191Z,5326.88
2019-05-06T09:01:53.154Z,4725.00
2019-05-06T09:02:52.897Z,1102.50
2019-05-06T09:04:07.961Z,888.75
2019-05-06T09:04:51.897Z,579.38
2019-05-06T09:05:52.873Z,478.12
2019-05-06T09:06:53.141Z,410.62
2019-05-06T09:07:52.387Z,348.75
2019-05-06T09:08:52.142Z,309.38
2019-05-06T09:09:52.695Z,281.25
2019-05-06T09:10:52.050Z,275.62
2019-05-06T09:11:53.247Z,281.25
2019-05-06T09:12:52.521Z,309.38
2019-05-06T09:13:52.138Z,354.38
2019-05-06T09:14:53.081Z,416.25
2019-05-06T09:15:52.533Z,489.38
2019-05-06T09:16:53.706Z,523.12
2019-05-06T09:17:52.652Z,556.88
2019-05-06T09:18:53.122Z,585.00
2019-05-06T09:19:53.272Z,613.12
2019-05-06T09:20:50.644Z,590.62
2019-05-06T09:21:53.061Z,601.88
2019-05-06T09:22:52.156Z,624.38
2019-05-06T09:23:52.900Z,641.25
2019-05-06T09:24:52.950Z,658.12
2019-05-06T09:25:52.581Z,720.00
2019-05-06T09:26:52.251Z,1451.25
2019-05-06T09:27:52.542Z,3183.75
2019-05-06T09:28:52.956Z,3594.38
2019-05-06T09:29:52.217Z,5990.62
2019-05-06T09:30:52.416Z,1569.38
2019-05-06T09:31:52.263Z,2874.38
2019-05-06T09:32:52.124Z,1288.12
2019-05-06T09:33:50.503Z,1125.00
2019-05-06T09:34:52.655Z,945.00
2019-05-06T09:35:52.739Z,787.50
2019-05-06T09:36:52.733Z,658.12
2019-05-06T09:37:50.465Z,568.12
2019-05-06T09:38:52.874Z,551.25
2019-05-06T09:39:50.440Z,579.38
2019-05-06T09:40:52.394Z,607.50
2019-05-06T09:41:50.552Z,618.75
2019-05-06T09:42:52.069Z,675.00
2019-05-06T09:43:52.662Z,821.25
2019-05-06T09:44:51.493Z,1856.25
2019-05-06T09:45:52.825Z,3133.12
2019-05-06T09:46:50.371Z,1006.88
2019-05-06T09:47:52.751Z,849.38
2019-05-06T09:48:52.616Z,748.12
2019-05-06T09:49:52.870Z,630.00
2019-05-06T09:50:50.432Z,545.62
2019-05-06T09:51:52.749Z,483.75
2019-05-06T09:52:52.727Z,455.62
2019-05-06T09:53:50.289Z,450.00
2019-05-06T09:54:50.279Z,472.50
2019-05-06T09:55:52.204Z,506.25
2019-05-06T09:56:50.258Z,579.38
2019-05-06T09:57:52.233Z,663.75
2019-05-06T09:58:52.752Z,742.50
2019-05-06T09:59:50.226Z,843.75
2019-05-06T10:00:50.254Z,950.62
2019-05-06T10:01:52.627Z,1153.12
2019-05-06T10:02:52.572Z,1282.50
2019-05-06T10:03:50.182Z,3937.50
2019-05-06T10:04:52.051Z,4820.62
2019-05-06T10:05:50.161Z,6125.62
2019-05-06T10:06:57.229Z,6367.50
2019-05-06T10:07:52.396Z,6271.88
2019-05-06T10:08:50.132Z,6474.38
2019-05-06T10:09:52.353Z,1091.25
2019-05-06T10:10:56.939Z,860.62
2019-05-06T10:11:52.558Z,781.88
2019-05-06T10:12:50.088Z,787.50
2019-05-06T10:13:52.295Z,798.75
2019-05-06T10:14:50.068Z,793.12
2019-05-06T10:15:51.943Z,826.88
2019-05-06T10:16:52.174Z,860.62
2019-05-06T10:17:52.033Z,990.00
2019-05-06T10:18:52.269Z,1012.50
2019-05-06T10:19:50.014Z,1029.38
2019-05-06T10:20:50.009Z,1023.75
2019-05-06T10:21:49.994Z,1068.75
2019-05-06T10:22:51.971Z,1130.62
2019-05-06T10:23:49.973Z,1091.25
2019-05-06T10:24:52.157Z,1147.50
2019-05-06T10:25:52.176Z,2385.00
2019-05-06T10:26:52.198Z,3166.88
2019-05-06T10:27:49.929Z,6311.25
2019-05-06T10:28:52.126Z,6018.75
2019-05-06T10:29:52.065Z,5793.75
2019-05-06T10:30:49.895Z,6103.12
2019-05-06T10:31:49.891Z,3431.25
2019-05-06T10:32:49.873Z,1012.50
2019-05-06T10:33:49.859Z,787.50
2019-05-06T10:34:49.851Z,714.38
2019-05-06T10:35:49.845Z,669.38
2019-05-06T10:36:49.835Z,618.75
2019-05-06T10:37:49.822Z,568.12
2019-05-06T10:38:49.817Z,528.75
2019-05-06T10:39:52.070Z,500.62
2019-05-06T10:41:00.731Z,500.62
2019-05-06T10:41:50.777Z,523.12
2019-05-06T10:42:52.150Z,562.50
2019-05-06T10:43:49.786Z,607.50
2019-05-06T10:44:49.745Z,691.88
2019-05-06T10:45:51.897Z,894.38
2019-05-06T10:46:49.725Z,849.38
2019-05-06T10:47:49.714Z,1321.88
2019-05-06T10:48:49.704Z,877.50
2019-05-06T10:49:49.693Z,787.50
2019-05-06T10:50:49.681Z,714.38
2019-05-06T10:51:49.674Z,663.75
2019-05-06T10:52:51.711Z,607.50
2019-05-06T10:53:49.650Z,556.88
2019-05-06T10:54:49.641Z,528.75
2019-05-06T10:55:49.627Z,511.88
2019-05-06T10:56:53.966Z,511.88
2019-05-06T10:57:52.950Z,517.50
2019-05-06T10:58:49.600Z,534.38
2019-05-06T10:59:49.583Z,562.50
2019-05-06T11:00:49.573Z,607.50
2019-05-06T11:01:49.573Z,663.75
2019-05-06T11:02:49.549Z,720.00
2019-05-06T11:03:49.547Z,798.75
2019-05-06T11:04:49.528Z,883.12
2019-05-06T11:05:49.523Z,978.75
2019-05-06T11:06:49.510Z,1096.88
2019-05-06T11:07:49.501Z,1248.75
2019-05-06T11:08:49.485Z,1445.62
2019-05-06T11:09:49.475Z,4775.62
2019-05-06T11:10:49.477Z,4348.12
2019-05-06T11:11:49.454Z,6345.00
2019-05-06T11:12:49.447Z,6024.38
2019-05-06T11:13:49.445Z,5973.75
2019-05-06T11:14:49.427Z,5563.12
2019-05-06T11:15:49.426Z,1130.62
2019-05-06T11:16:49.400Z,2030.62
2019-05-06T11:17:49.391Z,1164.38
2019-05-06T11:18:49.385Z,956.25
2019-05-06T11:19:49.371Z,815.62
2019-05-06T11:20:49.360Z,714.38
2019-05-06T11:21:49.348Z,641.25
2019-05-06T11:22:49.343Z,601.88
2019-05-06T11:23:49.328Z,573.75
2019-05-06T11:24:49.324Z,556.88
2019-05-06T11:25:49.304Z,562.50
2019-05-06T11:26:49.294Z,590.62
2019-05-06T11:27:49.290Z,630.00
2019-05-06T11:28:49.281Z,697.50
2019-05-06T11:29:49.266Z,860.62
2019-05-06T11:30:49.255Z,1462.50
2019-05-06T11:31:49.241Z,3920.62
2019-05-06T11:32:49.228Z,4708.12
2019-05-06T11:33:49.218Z,4522.50
2019-05-06T11:34:49.216Z,4331.25
2019-05-06T11:35:49.204Z,5540.62
2019-05-06T11:36:49.188Z,2227.50
2019-05-06T11:37:51.007Z,1777.50
2019-05-06T11:38:49.202Z,1518.75
2019-05-06T11:39:49.153Z,1254.38
2019-05-06T11:40:49.145Z,1141.88
2019-05-06T11:42:01.401Z,1102.50
2019-05-06T11:42:52.402Z,1063.12
2019-05-06T11:43:49.113Z,1636.88
2019-05-06T11:44:49.102Z,967.50
2019-05-06T11:45:49.091Z,832.50
2019-05-06T11:46:49.095Z,714.38
2019-05-06T11:47:49.071Z,613.12
2019-05-06T11:48:49.058Z,545.62
2019-05-06T11:49:49.048Z,495.00
2019-05-06T11:50:49.032Z,466.88
2019-05-06T11:51:49.030Z,478.12
2019-05-06T11:52:49.021Z,500.62
2019-05-06T11:53:49.009Z,551.25
2019-05-06T11:54:48.994Z,624.38
2019-05-06T11:55:48.986Z,703.12
2019-05-06T11:56:52.667Z,781.88
2019-05-06T11:57:49.961Z,877.50
2019-05-06T11:58:48.956Z,1068.75
2019-05-06T11:59:48.945Z,1063.12
2019-05-06T12:00:48.931Z,1288.12
2019-05-06T12:01:48.917Z,1035.00
2019-05-06T12:02:49.149Z,1226.25
2019-05-06T12:03:48.897Z,2840.62
2019-05-06T12:04:48.887Z,2176.88
2019-05-06T12:05:48.880Z,1726.88
2019-05-06T12:06:48.898Z,1558.12
2019-05-06T12:08:03.781Z,1496.25
2019-05-06T12:08:49.845Z,1490.62
2019-05-06T12:09:48.835Z,1507.50
2019-05-06T12:10:48.826Z,781.88
2019-05-06T12:11:48.808Z,888.75
2019-05-06T12:12:48.803Z,883.12
2019-05-06T12:13:48.789Z,922.50
2019-05-06T12:14:48.777Z,967.50
2019-05-06T12:15:48.767Z,950.62
2019-05-06T12:16:48.778Z,922.50
2019-05-06T12:17:48.744Z,900.00
2019-05-06T12:18:48.731Z,905.62
2019-05-06T12:19:48.726Z,911.25
2019-05-06T12:20:48.716Z,905.62
2019-05-06T12:21:48.711Z,871.88
2019-05-06T12:22:48.708Z,826.88
2019-05-06T12:23:48.688Z,804.38
2019-05-06T12:24:48.674Z,804.38
2019-05-06T12:25:48.661Z,793.12
2019-05-06T12:26:48.647Z,781.88
2019-05-06T12:27:48.640Z,793.12
2019-05-06T12:28:48.636Z,787.50
2019-05-06T12:29:48.619Z,765.00
2019-05-06T12:30:48.626Z,736.88
2019-05-06T12:31:48.598Z,708.75
2019-05-06T12:32:48.589Z,686.25
2019-05-06T12:33:48.576Z,658.12
2019-05-06T12:34:48.564Z,641.25
2019-05-06T12:35:48.552Z,624.38
2019-05-06T12:36:48.549Z,590.62
2019-05-06T12:37:48.534Z,562.50
2019-05-06T12:38:48.522Z,534.38
2019-05-06T12:39:48.512Z,506.25